»·PEaware :: N351CB KSAN-KLAX

N351CB :: KSAN-KLAX

FLIGHT INFORMATION

Flight Status: Arrived
Operator: Privately registered:
United States
More flights under this callsign
Pilot: Andrew K. (26905)
Aircraft: SOCATA TBM-900
(TBM9)
More flights by this aircraft type
Origin: KSAN San Diego Intl-Lindbergh
United States
Destination: KLAX Los Angeles Intl
United States
More flights between these airports :: More routes between these airports
Route: CWARD2 SLI
File this flight plan on PilotEdge
Remarks:
Altitude:
(Current/Filed)
7,000ft
Speed:
(Current/Filed)
210kts
Departed: 28-Jan-20 08:00 PM
Arrived: 28-Jan-20 09:10 PM
Distance/Time
Traveled:
94nm/1:10
Distance/Time
To Go:
Arrived

Flight Plot

Page will automatically refresh every two minutes.

Flight plan parsing failed; only flown route is shown


Map Options




Map Legend


Flown Route
Filed Route
Departure Airport
Arrival Airport
Navaid (VOR, NDB)
Fix

Horizontal Profiles

Position Reports

Time Latitude Longitude Heading Altitude Ground
Speed
28-Jan-20 19:30 32.733133 -117.179062 95 19ft 0kts
28-Jan-20 19:31 32.733133 -117.179062 95 19ft 0kts
28-Jan-20 19:32 32.733133 -117.179062 95 19ft 0kts
28-Jan-20 19:33 32.733133 -117.179062 95 19ft 0kts
28-Jan-20 19:34 32.733133 -117.179062 95 19ft 0kts
28-Jan-20 19:35 32.733133 -117.179062 95 19ft 0kts
28-Jan-20 19:36 32.733133 -117.179062 95 19ft 0kts
28-Jan-20 19:37 32.733133 -117.179062 95 19ft 0kts
28-Jan-20 19:38 32.733133 -117.179062 95 19ft 0kts
28-Jan-20 19:39 32.733133 -117.179062 95 19ft 0kts
28-Jan-20 19:40 32.733133 -117.179062 95 19ft 0kts
28-Jan-20 19:41 32.733133 -117.179062 95 20ft 0kts
28-Jan-20 19:42 32.733133 -117.179062 95 20ft 0kts
28-Jan-20 19:43 32.733133 -117.179062 95 20ft 0kts
28-Jan-20 19:44 32.733133 -117.179062 95 20ft 0kts
28-Jan-20 19:45 32.733133 -117.179062 95 20ft 0kts
28-Jan-20 19:46 32.733133 -117.179062 95 20ft 0kts
28-Jan-20 19:47 32.733133 -117.179062 95 20ft 0kts
28-Jan-20 19:48 32.733133 -117.179062 95 20ft 0kts
28-Jan-20 19:49 32.733133 -117.179061 95 20ft 0kts
28-Jan-20 19:50 32.733133 -117.179061 95 20ft 0kts
28-Jan-20 19:51 32.733133 -117.179061 95 20ft 0kts
28-Jan-20 19:52 32.733133 -117.179061 95 20ft 0kts
28-Jan-20 19:53 32.733133 -117.179061 95 20ft 0kts
28-Jan-20 19:54 32.733120 -117.178901 103 20ft 7kts
28-Jan-20 19:55 32.731469 -117.176460 124 20ft 18kts
28-Jan-20 19:56 32.730971 -117.175519 123 21ft 0kts
28-Jan-20 19:57 32.730957 -117.175494 123 21ft 0kts
28-Jan-20 19:58 32.730907 -117.175409 131 21ft 1kts
28-Jan-20 19:59 32.733994 -117.191611 284 228ft 148kts
28-Jan-20 20:00 32.759027 -117.228882 322 2766ft 150kts
28-Jan-20 20:01 32.794239 -117.257389 323 4845ft 158kts
28-Jan-20 20:02 32.830178 -117.286058 323 6960ft 156kts
28-Jan-20 20:03 32.865112 -117.313904 323 8023ft 153kts
28-Jan-20 20:04 32.903746 -117.344679 324 8404ft 180kts
28-Jan-20 20:25 32.732422 -117.176643 194 21ft 0kts
28-Jan-20 20:26 32.732422 -117.176643 194 21ft 0kts
28-Jan-20 20:27 32.732422 -117.176643 194 21ft 0kts
28-Jan-20 20:28 32.732422 -117.176643 194 21ft 0kts
28-Jan-20 20:29 32.732422 -117.176643 194 21ft 0kts
28-Jan-20 20:30 32.732422 -117.176643 194 21ft 0kts
28-Jan-20 20:31 32.732413 -117.176646 194 21ft 2kts
28-Jan-20 20:32 32.731012 -117.175602 130 21ft 0kts
28-Jan-20 20:33 32.731012 -117.175602 130 21ft 0kts
28-Jan-20 20:34 32.731012 -117.175602 130 21ft 0kts
28-Jan-20 20:35 32.732174 -117.185125 281 225ft 104kts
28-Jan-20 20:36 32.747174 -117.222101 301 2257ft 146kts
28-Jan-20 20:37 32.770114 -117.264572 302 4210ft 157kts
28-Jan-20 20:38 32.803850 -117.297637 325 6120ft 164kts
28-Jan-20 20:39 32.842319 -117.327256 326 7956ft 169kts
28-Jan-20 20:40 32.889412 -117.363285 327 7987ft 220kts
28-Jan-20 20:41 32.942701 -117.404038 327 7980ft 232kts
28-Jan-20 20:42 32.997352 -117.445861 328 7979ft 234kts
28-Jan-20 20:43 33.052311 -117.488002 328 7979ft 234kts
28-Jan-20 20:44 33.107670 -117.530521 328 7982ft 240kts
28-Jan-20 20:45 33.164142 -117.573968 328 8019ft 241kts
28-Jan-20 20:46 33.220544 -117.617419 328 8019ft 241kts
28-Jan-20 20:47 33.277096 -117.661057 327 8019ft 241kts
28-Jan-20 20:48 33.333717 -117.704807 327 8018ft 241kts
28-Jan-20 20:49 33.390175 -117.748504 327 8015ft 241kts
28-Jan-20 20:50 33.446617 -117.792258 326 8011ft 242kts
28-Jan-20 20:51 33.502994 -117.836049 326 8009ft 242kts
28-Jan-20 20:52 33.560785 -117.881022 326 7437ft 257kts
28-Jan-20 20:53 33.618508 -117.925993 327 6262ft 230kts
28-Jan-20 20:54 33.668444 -117.964935 327 5997ft 198kts
28-Jan-20 20:55 33.713380 -118.000039 327 6001ft 189kts
28-Jan-20 20:56 33.758689 -118.035483 327 5941ft 202kts
28-Jan-20 20:57 33.812229 -118.051314 11 5134ft 217kts
28-Jan-20 20:58 33.868058 -118.035349 11 4988ft 195kts
28-Jan-20 20:59 33.912122 -118.054578 296 4543ft 206kts
28-Jan-20 21:00 33.932909 -118.121571 291 3569ft 217kts
28-Jan-20 21:01 33.951579 -118.175752 276 2955ft 111kts
28-Jan-20 21:02 33.952317 -118.207485 272 2305ft 97kts
28-Jan-20 21:03 33.950672 -118.241620 265 3113ft 103kts
28-Jan-20 21:04 33.946823 -118.274421 262 2652ft 95kts
28-Jan-20 21:05 33.944153 -118.305653 260 1704ft 89kts
28-Jan-20 21:06 33.941655 -118.337510 263 993ft 87kts
28-Jan-20 21:07 33.938935 -118.366336 262 453ft 82kts
28-Jan-20 21:08 33.936433 -118.391710 263 104ft 62kts
28-Jan-20 21:09 33.935064 -118.401664 240 118ft 26kts
28-Jan-20 21:10 33.934787 -118.395446 84 108ft 34kts
28-Jan-20 21:11 33.933931 -118.395262 266 108ft 0kts
28-Jan-20 21:12 33.933931 -118.395262 266 108ft 0kts
28-Jan-20 21:13 33.933931 -118.395262 266 108ft 0kts
28-Jan-20 21:14 33.933931 -118.395262 265 108ft 0kts
28-Jan-20 21:15 33.933931 -118.395262 265 108ft 0kts
28-Jan-20 21:16 33.933931 -118.395262 265 108ft 0kts
28-Jan-20 21:17 33.933931 -118.395262 265 108ft 0kts
28-Jan-20 21:18 33.933931 -118.395262 265 108ft 0kts
28-Jan-20 21:19 33.933931 -118.395262 265 108ft 0kts
28-Jan-20 21:20 33.933931 -118.395262 265 108ft 0kts
28-Jan-20 21:21 33.933931 -118.395262 265 108ft 0kts
28-Jan-20 21:22 33.933931 -118.395262 265 108ft 0kts
28-Jan-20 21:23 33.933931 -118.395262 265 108ft 0kts

Navigation Log

Ident Type
Flight plan parsing failed, navigation log unavailable